Richmond North's Hourly Summary for Tuesday, July 10, 2018
Hour Temp
(f)
RH
(%)
Solar Rad.
(MJ/m2)
Rainfall
(in)
Wind
(mph)
7/10/2018 12:00 AM 74 98 0 0 0
7/10/2018 1:00 AM 73 98 0 0 0
7/10/2018 2:00 AM 72 99 0 0 0
7/10/2018 3:00 AM 72 99 0 0 0
7/10/2018 4:00 AM 71 99 0 0 0
7/10/2018 5:00 AM 71 99 0 0 0
7/10/2018 6:00 AM 71 99 0.04 0 0
7/10/2018 7:00 AM 75 96 0.45 0 0.04
7/10/2018 8:00 AM 81 77 0.94 0 0.56
7/10/2018 9:00 AM 83 72 1.49 0 1.91
7/10/2018 10:00 AM 85 62 2.54 0 2.24
7/10/2018 11:00 AM 87 52 3.08 0 1.85
7/10/2018 12:00 PM 88 52 3.35 0 2.15
7/10/2018 1:00 PM 90 48 3.51 0 2.43
7/10/2018 2:00 PM 90 47 2.96 0 2.27
7/10/2018 3:00 PM 91 44 2.96 0 2.53
7/10/2018 4:00 PM 92 42 2.49 0 2.38
7/10/2018 5:00 PM 90 50 1.7 0 3.8
7/10/2018 6:00 PM 88 56 0.94 0 2.6
7/10/2018 7:00 PM 86 60 0.36 0 2.36
7/10/2018 8:00 PM 82 71 0.02 0 0.82
7/10/2018 9:00 PM 78 79 0 0 0.14
7/10/2018 10:00 PM 78 86 0 0 0.85
7/10/2018 11:00 PM 76 88 0 0 0
Data Summary 81 73 26.83 0.00 1.21